sensor_id;sensor_type;location;lat;lon;timestamp;temperature;humidity
17425;DHT22;8830;50.978;5.058;2022-10-03T00:02:44;9.90;99.90
17425;DHT22;8830;50.978;5.058;2022-10-03T00:05:28;10.10;99.90
17425;DHT22;8830;50.978;5.058;2022-10-03T00:08:08;9.90;99.90
17425;DHT22;8830;50.978;5.058;2022-10-03T00:10:48;9.90;99.90
17425;DHT22;8830;50.978;5.058;2022-10-03T00:13:23;9.90;99.90
17425;DHT22;8830;50.978;5.058;2022-10-03T00:16:03;9.90;99.90
17425;DHT22;8830;50.978;5.058;2022-10-03T00:18:39;9.80;99.90
17425;DHT22;8830;50.978;5.058;2022-10-03T00:21:20;9.70;99.90
17425;DHT22;8830;50.978;5.058;2022-10-03T00:23:59;9.80;99.90
17425;DHT22;8830;50.978;5.058;2022-10-03T00:26:36;9.80;99.90
17425;DHT22;8830;50.978;5.058;2022-10-03T00:29:23;9.80;99.90
17425;DHT22;8830;50.978;5.058;2022-10-03T00:31:58;9.80;99.90
17425;DHT22;8830;50.978;5.058;2022-10-03T00:34:38;9.80;99.90
17425;DHT22;8830;50.978;5.058;2022-10-03T00:37:18;9.70;99.90
17425;DHT22;8830;50.978;5.058;2022-10-03T00:43:10;9.80;99.90
17425;DHT22;8830;50.978;5.058;2022-10-03T00:49:05;9.80;99.90
17425;DHT22;8830;50.978;5.058;2022-10-03T00:51:48;9.70;99.90
17425;DHT22;8830;50.978;5.058;2022-10-03T00:54:32;9.80;99.90
17425;DHT22;8830;50.978;5.058;2022-10-03T00:57:19;9.70;99.90
17425;DHT22;8830;50.978;5.058;2022-10-03T01:00:13;6.60;99.90
17425;DHT22;8830;50.978;5.058;2022-10-03T01:02:48;9.70;99.90
17425;DHT22;8830;50.978;5.058;2022-10-03T01:05:28;9.70;99.90
17425;DHT22;8830;50.978;5.058;2022-10-03T01:08:36;9.70;99.90
17425;DHT22;8830;50.978;5.058;2022-10-03T01:11:18;9.70;99.90
17425;DHT22;8830;50.978;5.058;2022-10-03T01:14:00;9.60;99.90
17425;DHT22;8830;50.978;5.058;2022-10-03T01:16:38;9.60;99.90
17425;DHT22;8830;50.978;5.058;2022-10-03T01:19:31;9.60;99.90
17425;DHT22;8830;50.978;5.058;2022-10-03T01:22:29;9.70;99.90
17425;DHT22;8830;50.978;5.058;2022-10-03T01:25:10;9.60;99.90
17425;DHT22;8830;50.978;5.058;2022-10-03T01:27:44;9.70;99.90
17425;DHT22;8830;50.978;5.058;2022-10-03T01:30:37;9.60;99.90
17425;DHT22;8830;50.978;5.058;2022-10-03T01:33:10;9.60;99.90
17425;DHT22;8830;50.978;5.058;2022-10-03T01:35:48;7.80;99.90
17425;DHT22;8830;50.978;5.058;2022-10-03T01:38:21;9.50;99.90
17425;DHT22;8830;50.978;5.058;2022-10-03T01:40:57;9.60;99.90
17425;DHT22;8830;50.978;5.058;2022-10-03T01:43:34;9.60;99.90
17425;DHT22;8830;50.978;5.058;2022-10-03T01:46:11;9.60;99.90
17425;DHT22;8830;50.978;5.058;2022-10-03T01:48:47;9.60;99.90
17425;DHT22;8830;50.978;5.058;2022-10-03T01:51:20;9.60;99.90
17425;DHT22;8830;50.978;5.058;2022-10-03T01:54:00;9.60;99.90
17425;DHT22;8830;50.978;5.058;2022-10-03T01:56:36;9.70;99.90
17425;DHT22;8830;50.978;5.058;2022-10-03T01:59:10;9.60;99.90
17425;DHT22;8830;50.978;5.058;2022-10-03T02:01:46;9.80;99.90
17425;DHT22;8830;50.978;5.058;2022-10-03T02:04:26;9.60;99.90
17425;DHT22;8830;50.978;5.058;2022-10-03T02:06:59;9.60;99.90
17425;DHT22;8830;50.978;5.058;2022-10-03T02:09:36;9.60;99.90
17425;DHT22;8830;50.978;5.058;2022-10-03T02:12:09;9.60;99.90
17425;DHT22;8830;50.978;5.058;2022-10-03T02:14:46;9.60;99.90
17425;DHT22;8830;50.978;5.058;2022-10-03T02:17:24;9.60;99.90
17425;DHT22;8830;50.978;5.058;2022-10-03T02:20:04;9.60;99.90
17425;DHT22;8830;50.978;5.058;2022-10-03T02:22:36;9.50;99.90
17425;DHT22;8830;50.978;5.058;2022-10-03T02:25:17;9.50;99.90
17425;DHT22;8830;50.978;5.058;2022-10-03T02:31:00;9.40;99.90
17425;DHT22;8830;50.978;5.058;2022-10-03T02:33:59;9.40;99.90
17425;DHT22;8830;50.978;5.058;2022-10-03T02:36:59;9.20;99.90
17425;DHT22;8830;50.978;5.058;2022-10-03T02:39:59;9.20;99.90
17425;DHT22;8830;50.978;5.058;2022-10-03T02:42:58;9.20;99.90
17425;DHT22;8830;50.978;5.058;2022-10-03T02:49:14;9.20;99.90
17425;DHT22;8830;50.978;5.058;2022-10-03T02:52:19;9.20;99.90
17425;DHT22;8830;50.978;5.058;2022-10-03T02:55:17;9.20;99.90
17425;DHT22;8830;50.978;5.058;2022-10-03T03:01:45;9.20;99.90
17425;DHT22;8830;50.978;5.058;2022-10-03T03:07:35;9.20;99.90
17425;DHT22;8830;50.978;5.058;2022-10-03T03:10:21;9.20;99.90
17425;DHT22;8830;50.978;5.058;2022-10-03T03:13:22;9.10;99.90
17425;DHT22;8830;50.978;5.058;2022-10-03T03:16:20;9.00;99.90
17425;DHT22;8830;50.978;5.058;2022-10-03T03:19:15;8.90;99.90
17425;DHT22;8830;50.978;5.058;2022-10-03T03:21:52;8.90;99.90
17425;DHT22;8830;50.978;5.058;2022-10-03T03:24:31;8.90;99.90
17425;DHT22;8830;50.978;5.058;2022-10-03T03:27:15;8.90;99.90
17425;DHT22;8830;50.978;5.058;2022-10-03T03:29:49;8.90;99.90
17425;DHT22;8830;50.978;5.058;2022-10-03T03:32:27;8.80;99.90
17425;DHT22;8830;50.978;5.058;2022-10-03T03:35:08;9.00;99.90
17425;DHT22;8830;50.978;5.058;2022-10-03T03:37:49;8.80;99.90
17425;DHT22;8830;50.978;5.058;2022-10-03T03:40:39;8.90;99.90
17425;DHT22;8830;50.978;5.058;2022-10-03T03:43:29;8.90;99.90
17425;DHT22;8830;50.978;5.058;2022-10-03T03:46:09;9.00;99.90
17425;DHT22;8830;50.978;5.058;2022-10-03T03:48:59;8.80;99.90
17425;DHT22;8830;50.978;5.058;2022-10-03T03:51:36;8.80;99.90
17425;DHT22;8830;50.978;5.058;2022-10-03T03:54:36;8.80;99.90
17425;DHT22;8830;50.978;5.058;2022-10-03T03:57:32;8.80;99.90
17425;DHT22;8830;50.978;5.058;2022-10-03T04:00:10;8.80;99.90
17425;DHT22;8830;50.978;5.058;2022-10-03T04:02:56;8.80;99.90
17425;DHT22;8830;50.978;5.058;2022-10-03T04:05:37;8.70;99.90
17425;DHT22;8830;50.978;5.058;2022-10-03T04:08:19;8.60;99.90
17425;DHT22;8830;50.978;5.058;2022-10-03T04:11:01;8.70;99.90
17425;DHT22;8830;50.978;5.058;2022-10-03T04:13:51;8.70;99.90
17425;DHT22;8830;50.978;5.058;2022-10-03T04:16:41;8.70;99.90
17425;DHT22;8830;50.978;5.058;2022-10-03T04:19:41;8.60;99.90
17425;DHT22;8830;50.978;5.058;2022-10-03T04:22:24;8.60;99.90
17425;DHT22;8830;50.978;5.058;2022-10-03T04:25:22;8.50;99.90
17425;DHT22;8830;50.978;5.058;2022-10-03T04:28:16;8.30;99.90
17425;DHT22;8830;50.978;5.058;2022-10-03T04:31:03;8.20;99.90
17425;DHT22;8830;50.978;5.058;2022-10-03T04:33:41;8.20;99.90
17425;DHT22;8830;50.978;5.058;2022-10-03T04:39:10;8.20;99.90
17425;DHT22;8830;50.978;5.058;2022-10-03T04:41:47;8.20;99.90
17425;DHT22;8830;50.978;5.058;2022-10-03T04:44:32;8.40;99.90
17425;DHT22;8830;50.978;5.058;2022-10-03T04:47:06;8.10;99.90
17425;DHT22;8830;50.978;5.058;2022-10-03T04:49:41;8.10;99.90
17425;DHT22;8830;50.978;5.058;2022-10-03T04:52:17;8.10;99.90
17425;DHT22;8830;50.978;5.058;2022-10-03T04:54:53;8.10;99.90
17425;DHT22;8830;50.978;5.058;2022-10-03T04:57:29;8.10;99.90
17425;DHT22;8830;50.978;5.058;2022-10-03T05:00:11;8.10;99.90
17425;DHT22;8830;50.978;5.058;2022-10-03T05:02:45;8.10;99.90
17425;DHT22;8830;50.978;5.058;2022-10-03T05:05:33;8.10;99.90
17425;DHT22;8830;50.978;5.058;2022-10-03T05:08:15;8.10;99.90
17425;DHT22;8830;50.978;5.058;2022-10-03T05:10:56;8.00;99.90
17425;DHT22;8830;50.978;5.058;2022-10-03T05:13:32;8.10;99.90
17425;DHT22;8830;50.978;5.058;2022-10-03T05:16:14;8.00;99.90
17425;DHT22;8830;50.978;5.058;2022-10-03T05:18:47;8.00;99.90
17425;DHT22;8830;50.978;5.058;2022-10-03T05:21:26;8.50;99.90
17425;DHT22;8830;50.978;5.058;2022-10-03T05:24:01;8.00;99.90
17425;DHT22;8830;50.978;5.058;2022-10-03T05:26:40;7.90;99.90
17425;DHT22;8830;50.978;5.058;2022-10-03T05:29:17;7.90;99.90
17425;DHT22;8830;50.978;5.058;2022-10-03T05:31:52;7.80;99.90
17425;DHT22;8830;50.978;5.058;2022-10-03T05:34:32;9.20;99.90
17425;DHT22;8830;50.978;5.058;2022-10-03T05:37:28;7.80;99.90
17425;DHT22;8830;50.978;5.058;2022-10-03T05:40:03;7.70;99.90
17425;DHT22;8830;50.978;5.058;2022-10-03T05:42:44;7.70;99.90
17425;DHT22;8830;50.978;5.058;2022-10-03T05:45:27;7.80;99.90
17425;DHT22;8830;50.978;5.058;2022-10-03T05:48:11;7.70;99.90
17425;DHT22;8830;50.978;5.058;2022-10-03T05:57:23;7.80;99.90
17425;DHT22;8830;50.978;5.058;2022-10-03T06:00:17;7.90;99.90
17425;DHT22;8830;50.978;5.058;2022-10-03T06:05:59;7.90;99.90
17425;DHT22;8830;50.978;5.058;2022-10-03T06:12:04;7.90;99.90
17425;DHT22;8830;50.978;5.058;2022-10-03T06:14:42;8.00;99.90
17425;DHT22;8830;50.978;5.058;2022-10-03T06:17:30;8.00;99.90
17425;DHT22;8830;50.978;5.058;2022-10-03T06:20:14;8.10;99.90
17425;DHT22;8830;50.978;5.058;2022-10-03T06:23:19;8.20;99.90
17425;DHT22;8830;50.978;5.058;2022-10-03T06:35:28;8.70;99.90
17425;DHT22;8830;50.978;5.058;2022-10-03T06:38:47;9.50;99.90
17425;DHT22;8830;50.978;5.058;2022-10-03T06:41:51;10.10;99.90
17425;DHT22;8830;50.978;5.058;2022-10-03T06:44:36;11.60;99.90
17425;DHT22;8830;50.978;5.058;2022-10-03T06:47:46;11.70;99.90
17425;DHT22;8830;50.978;5.058;2022-10-03T06:50:33;12.60;99.90
17425;DHT22;8830;50.978;5.058;2022-10-03T06:53:44;13.40;99.90
17425;DHT22;8830;50.978;5.058;2022-10-03T06:56:47;13.90;99.90
17425;DHT22;8830;50.978;5.058;2022-10-03T06:59:40;14.40;99.90
17425;DHT22;8830;50.978;5.058;2022-10-03T07:02:47;14.90;99.90
17425;DHT22;8830;50.978;5.058;2022-10-03T07:08:52;13.20;99.90
17425;DHT22;8830;50.978;5.058;2022-10-03T07:14:52;12.80;99.90
17425;DHT22;8830;50.978;5.058;2022-10-03T07:17:53;12.70;99.90
17425;DHT22;8830;50.978;5.058;2022-10-03T07:23:53;12.40;99.90
17425;DHT22;8830;50.978;5.058;2022-10-03T07:29:29;12.30;99.90
17425;DHT22;8830;50.978;5.058;2022-10-03T07:32:23;12.30;99.90
17425;DHT22;8830;50.978;5.058;2022-10-03T07:35:31;12.90;99.90
17425;DHT22;8830;50.978;5.058;2022-10-03T07:38:42;13.20;99.90
17425;DHT22;8830;50.978;5.058;2022-10-03T07:45:08;13.40;99.90
17425;DHT22;8830;50.978;5.058;2022-10-03T07:50:55;13.70;99.90
17425;DHT22;8830;50.978;5.058;2022-10-03T07:57:07;14.50;99.90
17425;DHT22;8830;50.978;5.058;2022-10-03T08:00:05;14.50;99.90
17425;DHT22;8830;50.978;5.058;2022-10-03T08:09:27;16.50;99.90
17425;DHT22;8830;50.978;5.058;2022-10-03T08:12:41;17.40;99.90
17425;DHT22;8830;50.978;5.058;2022-10-03T08:15:21;18.00;99.90
17425;DHT22;8830;50.978;5.058;2022-10-03T08:18:31;18.00;99.90
17425;DHT22;8830;50.978;5.058;2022-10-03T08:21:17;17.80;99.90
17425;DHT22;8830;50.978;5.058;2022-10-03T08:24:16;17.30;99.90
17425;DHT22;8830;50.978;5.058;2022-10-03T08:27:07;16.50;99.90
17425;DHT22;8830;50.978;5.058;2022-10-03T08:33:00;15.80;99.90
17425;DHT22;8830;50.978;5.058;2022-10-03T08:38:54;15.50;99.90
17425;DHT22;8830;50.978;5.058;2022-10-03T08:42:05;15.50;99.90
17425;DHT22;8830;50.978;5.058;2022-10-03T08:45:00;15.50;99.90
17425;DHT22;8830;50.978;5.058;2022-10-03T08:48:25;15.50;99.90
17425;DHT22;8830;50.978;5.058;2022-10-03T08:51:10;15.50;99.90
17425;DHT22;8830;50.978;5.058;2022-10-03T08:54:05;15.40;99.90
17425;DHT22;8830;50.978;5.058;2022-10-03T08:57:05;15.50;99.90
17425;DHT22;8830;50.978;5.058;2022-10-03T09:00:01;15.50;99.90
17425;DHT22;8830;50.978;5.058;2022-10-03T09:03:10;15.30;99.90
17425;DHT22;8830;50.978;5.058;2022-10-03T09:06:17;15.30;99.90
17425;DHT22;8830;50.978;5.058;2022-10-03T09:12:27;15.40;99.90
17425;DHT22;8830;50.978;5.058;2022-10-03T09:15:14;15.60;99.90
17425;DHT22;8830;50.978;5.058;2022-10-03T09:18:08;15.80;99.90
17425;DHT22;8830;50.978;5.058;2022-10-03T09:24:56;15.80;99.90
17425;DHT22;8830;50.978;5.058;2022-10-03T09:30:56;15.90;99.90
17425;DHT22;8830;50.978;5.058;2022-10-03T09:40:38;15.90;99.90
17425;DHT22;8830;50.978;5.058;2022-10-03T09:43:43;15.90;99.90
17425;DHT22;8830;50.978;5.058;2022-10-03T09:46:48;15.90;99.90
17425;DHT22;8830;50.978;5.058;2022-10-03T09:50:10;15.00;99.90
17425;DHT22;8830;50.978;5.058;2022-10-03T09:56:13;16.40;99.90
17425;DHT22;8830;50.978;5.058;2022-10-03T10:02:31;16.90;99.90
17425;DHT22;8830;50.978;5.058;2022-10-03T10:12:04;17.10;99.90
17425;DHT22;8830;50.978;5.058;2022-10-03T10:15:35;17.20;99.90
17425;DHT22;8830;50.978;5.058;2022-10-03T10:18:30;17.40;99.90
17425;DHT22;8830;50.978;5.058;2022-10-03T10:21:43;17.70;99.90
17425;DHT22;8830;50.978;5.058;2022-10-03T10:40:13;17.60;99.90
17425;DHT22;8830;50.978;5.058;2022-10-03T10:43:12;17.40;99.90
17425;DHT22;8830;50.978;5.058;2022-10-03T10:46:09;17.50;99.90
17425;DHT22;8830;50.978;5.058;2022-10-03T10:52:23;17.90;99.90
17425;DHT22;8830;50.978;5.058;2022-10-03T10:59:04;17.80;99.90
17425;DHT22;8830;50.978;5.058;2022-10-03T11:02:22;18.10;99.90
17425;DHT22;8830;50.978;5.058;2022-10-03T11:27:30;18.20;99.90
17425;DHT22;8830;50.978;5.058;2022-10-03T11:30:24;18.10;99.90
17425;DHT22;8830;50.978;5.058;2022-10-03T11:39:04;18.70;99.90
17425;DHT22;8830;50.978;5.058;2022-10-03T11:41:41;18.90;99.90
17425;DHT22;8830;50.978;5.058;2022-10-03T11:44:24;18.90;99.90
17425;DHT22;8830;50.978;5.058;2022-10-03T11:47:31;18.90;99.90
17425;DHT22;8830;50.978;5.058;2022-10-03T11:50:25;19.00;99.90
17425;DHT22;8830;50.978;5.058;2022-10-03T11:56:07;18.70;99.90
17425;DHT22;8830;50.978;5.058;2022-10-03T12:02:06;18.90;99.90
17425;DHT22;8830;50.978;5.058;2022-10-03T12:07:46;19.30;99.90
17425;DHT22;8830;50.978;5.058;2022-10-03T12:10:46;19.20;99.90
17425;DHT22;8830;50.978;5.058;2022-10-03T12:13:21;19.00;99.90
17425;DHT22;8830;50.978;5.058;2022-10-03T12:16:00;18.70;99.90
17425;DHT22;8830;50.978;5.058;2022-10-03T12:18:51;18.20;99.90
17425;DHT22;8830;50.978;5.058;2022-10-03T12:21:27;18.20;99.90
17425;DHT22;8830;50.978;5.058;2022-10-03T12:24:23;18.20;99.90
17425;DHT22;8830;50.978;5.058;2022-10-03T12:26:57;18.40;99.90
17425;DHT22;8830;50.978;5.058;2022-10-03T12:29:31;18.40;99.90
17425;DHT22;8830;50.978;5.058;2022-10-03T12:32:16;18.50;99.90
17425;DHT22;8830;50.978;5.058;2022-10-03T12:35:01;18.40;99.90
17425;DHT22;8830;50.978;5.058;2022-10-03T12:37:45;18.30;99.90
17425;DHT22;8830;50.978;5.058;2022-10-03T12:40:19;18.40;99.90
17425;DHT22;8830;50.978;5.058;2022-10-03T12:43:02;18.20;99.90
17425;DHT22;8830;50.978;5.058;2022-10-03T12:45:47;18.10;99.90
17425;DHT22;8830;50.978;5.058;2022-10-03T12:48:44;18.00;99.90
17425;DHT22;8830;50.978;5.058;2022-10-03T12:51:24;18.00;99.90
17425;DHT22;8830;50.978;5.058;2022-10-03T12:54:06;18.00;99.90
17425;DHT22;8830;50.978;5.058;2022-10-03T12:56:44;18.00;99.90
17425;DHT22;8830;50.978;5.058;2022-10-03T12:59:30;18.30;99.90
17425;DHT22;8830;50.978;5.058;2022-10-03T13:02:21;18.50;99.90
17425;DHT22;8830;50.978;5.058;2022-10-03T13:05:17;19.00;99.90
17425;DHT22;8830;50.978;5.058;2022-10-03T13:08:16;19.20;99.90
17425;DHT22;8830;50.978;5.058;2022-10-03T13:10:56;19.10;99.90
17425;DHT22;8830;50.978;5.058;2022-10-03T13:13:45;18.80;99.90
17425;DHT22;8830;50.978;5.058;2022-10-03T13:16:22;18.80;99.90
17425;DHT22;8830;50.978;5.058;2022-10-03T13:18:58;18.80;99.90
17425;DHT22;8830;50.978;5.058;2022-10-03T13:21:54;18.90;99.90
17425;DHT22;8830;50.978;5.058;2022-10-03T13:24:36;19.00;99.90
17425;DHT22;8830;50.978;5.058;2022-10-03T13:27:29;19.10;99.90
17425;DHT22;8830;50.978;5.058;2022-10-03T13:30:04;19.20;99.90
17425;DHT22;8830;50.978;5.058;2022-10-03T13:32:39;19.40;99.90
17425;DHT22;8830;50.978;5.058;2022-10-03T13:35:24;19.80;99.90
17425;DHT22;8830;50.978;5.058;2022-10-03T13:38:42;20.10;99.90
17425;DHT22;8830;50.978;5.058;2022-10-03T13:41:26;20.60;99.90
17425;DHT22;8830;50.978;5.058;2022-10-03T13:44:18;20.70;99.90
17425;DHT22;8830;50.978;5.058;2022-10-03T13:47:07;20.70;99.90
17425;DHT22;8830;50.978;5.058;2022-10-03T13:49:49;20.80;99.90
17425;DHT22;8830;50.978;5.058;2022-10-03T13:52:29;20.40;99.90
17425;DHT22;8830;50.978;5.058;2022-10-03T13:55:20;20.10;99.90
17425;DHT22;8830;50.978;5.058;2022-10-03T13:58:11;20.00;99.90
17425;DHT22;8830;50.978;5.058;2022-10-03T14:00:52;20.00;99.90
17425;DHT22;8830;50.978;5.058;2022-10-03T14:03:29;19.90;99.90
17425;DHT22;8830;50.978;5.058;2022-10-03T14:06:32;19.80;99.90
17425;DHT22;8830;50.978;5.058;2022-10-03T14:12:27;19.50;99.90
17425;DHT22;8830;50.978;5.058;2022-10-03T14:21:39;19.30;99.90
17425;DHT22;8830;50.978;5.058;2022-10-03T14:24:26;19.40;99.90
17425;DHT22;8830;50.978;5.058;2022-10-03T14:27:32;19.40;99.90
17425;DHT22;8830;50.978;5.058;2022-10-03T14:30:08;19.30;99.90
17425;DHT22;8830;50.978;5.058;2022-10-03T14:32:56;19.30;99.90
17425;DHT22;8830;50.978;5.058;2022-10-03T14:35:41;19.30;99.90
17425;DHT22;8830;50.978;5.058;2022-10-03T14:42:04;19.40;99.90
17425;DHT22;8830;50.978;5.058;2022-10-03T14:44:43;19.40;99.90
17425;DHT22;8830;50.978;5.058;2022-10-03T14:47:16;19.30;99.90
17425;DHT22;8830;50.978;5.058;2022-10-03T14:49:49;19.20;99.90
17425;DHT22;8830;50.978;5.058;2022-10-03T14:52:27;19.10;99.90
17425;DHT22;8830;50.978;5.058;2022-10-03T14:55:12;19.00;99.90
17425;DHT22;8830;50.978;5.058;2022-10-03T14:57:48;18.90;99.90
17425;DHT22;8830;50.978;5.058;2022-10-03T15:00:39;18.70;99.90
17425;DHT22;8830;50.978;5.058;2022-10-03T15:03:36;18.60;99.90
17425;DHT22;8830;50.978;5.058;2022-10-03T15:09:08;18.60;99.90
17425;DHT22;8830;50.978;5.058;2022-10-03T15:11:44;18.60;99.90
17425;DHT22;8830;50.978;5.058;2022-10-03T15:14:24;18.60;99.90
17425;DHT22;8830;50.978;5.058;2022-10-03T15:16:56;18.50;99.90
17425;DHT22;8830;50.978;5.058;2022-10-03T15:19:31;18.50;99.90
17425;DHT22;8830;50.978;5.058;2022-10-03T15:22:31;18.40;99.90
17425;DHT22;8830;50.978;5.058;2022-10-03T15:25:10;18.30;99.90
17425;DHT22;8830;50.978;5.058;2022-10-03T15:27:44;18.20;99.90
17425;DHT22;8830;50.978;5.058;2022-10-03T15:30:21;18.10;99.90
17425;DHT22;8830;50.978;5.058;2022-10-03T15:32:50;18.10;99.90
17425;DHT22;8830;50.978;5.058;2022-10-03T15:35:22;18.10;99.90
17425;DHT22;8830;50.978;5.058;2022-10-03T15:37:50;18.00;99.90
17425;DHT22;8830;50.978;5.058;2022-10-03T15:40:23;18.00;99.90
17425;DHT22;8830;50.978;5.058;2022-10-03T15:43:02;18.00;99.90
17425;DHT22;8830;50.978;5.058;2022-10-03T15:45:34;18.00;99.90
17425;DHT22;8830;50.978;5.058;2022-10-03T15:48:05;18.10;99.90
17425;DHT22;8830;50.978;5.058;2022-10-03T15:50:39;18.20;99.90
17425;DHT22;8830;50.978;5.058;2022-10-03T15:53:14;18.20;99.90
17425;DHT22;8830;50.978;5.058;2022-10-03T15:55:47;18.30;99.90
17425;DHT22;8830;50.978;5.058;2022-10-03T15:58:19;18.30;99.90
17425;DHT22;8830;50.978;5.058;2022-10-03T16:00:53;18.20;99.90
17425;DHT22;8830;50.978;5.058;2022-10-03T16:03:28;18.20;99.90
17425;DHT22;8830;50.978;5.058;2022-10-03T16:06:04;18.20;99.90
17425;DHT22;8830;50.978;5.058;2022-10-03T16:08:38;18.10;99.90
17425;DHT22;8830;50.978;5.058;2022-10-03T16:11:14;17.90;99.90
17425;DHT22;8830;50.978;5.058;2022-10-03T16:13:45;17.70;99.90
17425;DHT22;8830;50.978;5.058;2022-10-03T16:16:21;17.60;99.90
17425;DHT22;8830;50.978;5.058;2022-10-03T16:19:01;17.50;99.90
17425;DHT22;8830;50.978;5.058;2022-10-03T16:21:42;17.40;99.90
17425;DHT22;8830;50.978;5.058;2022-10-03T16:24:30;17.20;99.90
17425;DHT22;8830;50.978;5.058;2022-10-03T16:27:06;17.20;99.90
17425;DHT22;8830;50.978;5.058;2022-10-03T16:29:37;17.10;99.90
17425;DHT22;8830;50.978;5.058;2022-10-03T16:32:16;17.00;99.90
17425;DHT22;8830;50.978;5.058;2022-10-03T16:34:45;17.00;99.90
17425;DHT22;8830;50.978;5.058;2022-10-03T16:37:19;16.90;99.90
17425;DHT22;8830;50.978;5.058;2022-10-03T16:39:54;16.70;99.90
17425;DHT22;8830;50.978;5.058;2022-10-03T16:42:24;16.60;99.90
17425;DHT22;8830;50.978;5.058;2022-10-03T16:44:54;16.60;99.90
17425;DHT22;8830;50.978;5.058;2022-10-03T16:47:39;16.60;99.90
17425;DHT22;8830;50.978;5.058;2022-10-03T16:50:20;16.40;99.90
17425;DHT22;8830;50.978;5.058;2022-10-03T16:52:51;16.40;99.90
17425;DHT22;8830;50.978;5.058;2022-10-03T16:55:22;16.40;99.90
17425;DHT22;8830;50.978;5.058;2022-10-03T16:57:55;16.40;99.90
17425;DHT22;8830;50.978;5.058;2022-10-03T17:00:27;16.30;99.90
17425;DHT22;8830;50.978;5.058;2022-10-03T17:02:57;16.20;99.90
17425;DHT22;8830;50.978;5.058;2022-10-03T17:05:25;16.10;99.90
17425;DHT22;8830;50.978;5.058;2022-10-03T17:07:56;16.00;99.90
17425;DHT22;8830;50.978;5.058;2022-10-03T17:10:36;15.70;99.90
17425;DHT22;8830;50.978;5.058;2022-10-03T17:13:10;15.70;99.90
17425;DHT22;8830;50.978;5.058;2022-10-03T17:15:45;15.70;99.90
17425;DHT22;8830;50.978;5.058;2022-10-03T17:18:26;15.60;99.90
17425;DHT22;8830;50.978;5.058;2022-10-03T17:20:59;15.60;99.90
17425;DHT22;8830;50.978;5.058;2022-10-03T17:23:32;15.50;99.90
17425;DHT22;8830;50.978;5.058;2022-10-03T17:26:11;15.50;99.90
17425;DHT22;8830;50.978;5.058;2022-10-03T17:28:42;15.50;99.90
17425;DHT22;8830;50.978;5.058;2022-10-03T17:31:29;15.50;99.90
17425;DHT22;8830;50.978;5.058;2022-10-03T17:34:07;15.50;99.90
17425;DHT22;8830;50.978;5.058;2022-10-03T17:37:08;15.40;99.90
17425;DHT22;8830;50.978;5.058;2022-10-03T17:39:49;15.30;99.90
17425;DHT22;8830;50.978;5.058;2022-10-03T17:42:35;15.40;99.90
17425;DHT22;8830;50.978;5.058;2022-10-03T17:45:18;15.30;99.90
17425;DHT22;8830;50.978;5.058;2022-10-03T17:47:54;15.30;99.90
17425;DHT22;8830;50.978;5.058;2022-10-03T17:50:28;15.20;99.90
17425;DHT22;8830;50.978;5.058;2022-10-03T17:52:56;15.20;99.90
17425;DHT22;8830;50.978;5.058;2022-10-03T17:55:28;15.20;99.90
17425;DHT22;8830;50.978;5.058;2022-10-03T17:57:59;15.20;99.90
17425;DHT22;8830;50.978;5.058;2022-10-03T18:00:33;15.20;99.90
17425;DHT22;8830;50.978;5.058;2022-10-03T18:03:05;15.00;99.90
17425;DHT22;8830;50.978;5.058;2022-10-03T18:05:38;15.00;99.90
17425;DHT22;8830;50.978;5.058;2022-10-03T18:08:13;15.00;99.90
17425;DHT22;8830;50.978;5.058;2022-10-03T18:10:46;15.00;99.90
17425;DHT22;8830;50.978;5.058;2022-10-03T18:13:21;14.90;99.90
17425;DHT22;8830;50.978;5.058;2022-10-03T18:16:06;14.90;99.90
17425;DHT22;8830;50.978;5.058;2022-10-03T18:21:36;14.90;99.90
17425;DHT22;8830;50.978;5.058;2022-10-03T18:24:34;14.90;99.90
17425;DHT22;8830;50.978;5.058;2022-10-03T18:27:16;14.90;99.90
17425;DHT22;8830;50.978;5.058;2022-10-03T18:29:57;14.80;99.90
17425;DHT22;8830;50.978;5.058;2022-10-03T18:32:26;14.70;99.90
17425;DHT22;8830;50.978;5.058;2022-10-03T18:35:02;14.70;99.90
17425;DHT22;8830;50.978;5.058;2022-10-03T18:38:13;14.70;99.90
17425;DHT22;8830;50.978;5.058;2022-10-03T18:40:48;14.50;99.90
17425;DHT22;8830;50.978;5.058;2022-10-03T18:43:33;14.50;99.90
17425;DHT22;8830;50.978;5.058;2022-10-03T18:46:08;14.40;99.90
17425;DHT22;8830;50.978;5.058;2022-10-03T18:48:43;14.40;99.90
17425;DHT22;8830;50.978;5.058;2022-10-03T18:51:15;14.30;99.90
17425;DHT22;8830;50.978;5.058;2022-10-03T18:53:49;14.20;99.90
17425;DHT22;8830;50.978;5.058;2022-10-03T18:56:20;14.10;99.90
17425;DHT22;8830;50.978;5.058;2022-10-03T18:59:04;14.00;99.90
17425;DHT22;8830;50.978;5.058;2022-10-03T19:01:42;13.90;99.90
17425;DHT22;8830;50.978;5.058;2022-10-03T19:04:12;13.90;99.90
17425;DHT22;8830;50.978;5.058;2022-10-03T19:06:44;13.80;99.90
17425;DHT22;8830;50.978;5.058;2022-10-03T19:09:18;13.80;99.90
17425;DHT22;8830;50.978;5.058;2022-10-03T19:11:49;13.70;99.90
17425;DHT22;8830;50.978;5.058;2022-10-03T19:14:26;13.80;99.90
17425;DHT22;8830;50.978;5.058;2022-10-03T19:17:19;13.70;99.90
17425;DHT22;8830;50.978;5.058;2022-10-03T19:19:50;13.70;99.90
17425;DHT22;8830;50.978;5.058;2022-10-03T19:22:23;13.70;99.90
17425;DHT22;8830;50.978;5.058;2022-10-03T19:24:53;13.60;99.90
17425;DHT22;8830;50.978;5.058;2022-10-03T19:27:36;13.60;99.90
17425;DHT22;8830;50.978;5.058;2022-10-03T19:30:05;13.50;99.90
17425;DHT22;8830;50.978;5.058;2022-10-03T19:32:44;13.50;99.90
17425;DHT22;8830;50.978;5.058;2022-10-03T19:35:15;13.40;99.90
17425;DHT22;8830;50.978;5.058;2022-10-03T19:37:47;13.40;99.90
17425;DHT22;8830;50.978;5.058;2022-10-03T19:40:36;13.30;99.90
17425;DHT22;8830;50.978;5.058;2022-10-03T19:43:26;13.30;99.90
17425;DHT22;8830;50.978;5.058;2022-10-03T19:46:08;13.30;99.90
17425;DHT22;8830;50.978;5.058;2022-10-03T19:48:43;13.20;99.90
17425;DHT22;8830;50.978;5.058;2022-10-03T19:51:15;13.10;99.90
17425;DHT22;8830;50.978;5.058;2022-10-03T19:53:43;13.10;99.90
17425;DHT22;8830;50.978;5.058;2022-10-03T19:56:16;13.10;99.90
17425;DHT22;8830;50.978;5.058;2022-10-03T19:58:46;13.00;99.90
17425;DHT22;8830;50.978;5.058;2022-10-03T20:01:14;13.00;99.90
17425;DHT22;8830;50.978;5.058;2022-10-03T20:03:44;12.90;99.90
17425;DHT22;8830;50.978;5.058;2022-10-03T20:06:18;12.80;99.90
17425;DHT22;8830;50.978;5.058;2022-10-03T20:08:52;12.80;99.90
17425;DHT22;8830;50.978;5.058;2022-10-03T20:11:41;12.70;99.90
17425;DHT22;8830;50.978;5.058;2022-10-03T20:14:14;12.70;99.90
17425;DHT22;8830;50.978;5.058;2022-10-03T20:16:44;12.70;99.90
17425;DHT22;8830;50.978;5.058;2022-10-03T20:19:15;12.70;99.90
17425;DHT22;8830;50.978;5.058;2022-10-03T20:21:50;12.60;99.90
17425;DHT22;8830;50.978;5.058;2022-10-03T20:24:20;12.60;99.90
17425;DHT22;8830;50.978;5.058;2022-10-03T20:27:01;13.10;99.90
17425;DHT22;8830;50.978;5.058;2022-10-03T20:29:31;12.70;99.90
17425;DHT22;8830;50.978;5.058;2022-10-03T20:32:02;12.60;99.90
17425;DHT22;8830;50.978;5.058;2022-10-03T20:34:31;12.50;99.90
17425;DHT22;8830;50.978;5.058;2022-10-03T20:37:12;12.50;99.90
17425;DHT22;8830;50.978;5.058;2022-10-03T20:39:45;12.50;99.90
17425;DHT22;8830;50.978;5.058;2022-10-03T20:42:17;12.40;99.90
17425;DHT22;8830;50.978;5.058;2022-10-03T20:44:59;12.60;99.90
17425;DHT22;8830;50.978;5.058;2022-10-03T20:47:48;12.40;99.90